createdAt,value
2019-02-15T00:00:54.286Z,16.87
2019-02-15T00:03:20.988Z,16.87
2019-02-15T00:05:47.626Z,16.87
2019-02-15T00:08:14.274Z,16.88
2019-02-15T00:10:40.941Z,16.91
2019-02-15T00:13:13.361Z,16.86
2019-02-15T00:15:34.273Z,16.92
2019-02-15T00:18:00.958Z,16.88
2019-02-15T00:20:27.601Z,16.94
2019-02-15T00:22:54.235Z,16.90
2019-02-15T00:25:20.921Z,16.90
2019-02-15T00:27:47.559Z,16.85
2019-02-15T00:30:14.205Z,16.95
2019-02-15T00:32:40.897Z,16.93
2019-02-15T00:35:07.617Z,16.97
2019-02-15T00:37:34.258Z,16.96
2019-02-15T00:40:00.898Z,16.98
2019-02-15T00:42:28.876Z,16.99
2019-02-15T00:44:54.228Z,17.05
2019-02-15T00:47:20.878Z,17.06
2019-02-15T00:49:47.522Z,17.10
2019-02-15T00:52:14.171Z,17.09
2019-02-15T00:54:40.817Z,17.15
2019-02-15T00:57:07.454Z,17.16
2019-02-15T00:59:34.095Z,17.18
2019-02-15T01:02:00.762Z,17.19
2019-02-15T01:04:27.404Z,17.25
2019-02-15T01:06:54.041Z,17.24
2019-02-15T01:09:20.690Z,17.28
2019-02-15T01:11:47.393Z,17.30
2019-02-15T01:14:14.039Z,17.34
2019-02-15T01:16:40.696Z,17.33
2019-02-15T01:19:07.358Z,17.38
2019-02-15T01:21:34.010Z,17.44
2019-02-15T01:24:00.709Z,17.44
2019-02-15T01:26:27.300Z,17.40
2019-02-15T01:28:53.954Z,17.48
2019-02-15T01:31:20.635Z,17.49
2019-02-15T01:33:47.253Z,17.49
2019-02-15T01:36:13.944Z,17.46
2019-02-15T01:38:40.695Z,17.52
2019-02-15T01:41:07.343Z,17.49
2019-02-15T01:43:39.762Z,17.52
2019-02-15T01:46:00.640Z,17.51
2019-02-15T01:48:27.351Z,17.53
2019-02-15T01:50:53.987Z,17.57
2019-02-15T01:53:20.641Z,17.56
2019-02-15T01:55:47.276Z,17.56
2019-02-15T01:58:14.008Z,17.54
2019-02-15T02:00:40.647Z,17.61
2019-02-15T02:03:07.286Z,17.59
2019-02-15T02:05:33.937Z,17.67
2019-02-15T02:08:00.571Z,17.63
2019-02-15T02:10:27.228Z,17.69
2019-02-15T02:12:53.873Z,17.62
2019-02-15T02:15:20.534Z,17.67
2019-02-15T02:17:47.173Z,17.63
2019-02-15T02:20:13.870Z,17.75
2019-02-15T02:22:40.483Z,17.66
2019-02-15T02:25:07.133Z,17.71
2019-02-15T02:27:33.768Z,17.72
2019-02-15T02:30:00.474Z,17.75
2019-02-15T02:32:27.068Z,17.75
2019-02-15T02:34:53.707Z,17.80
2019-02-15T02:37:20.362Z,17.81
2019-02-15T02:39:46.998Z,17.83
2019-02-15T02:42:13.659Z,17.81
2019-02-15T02:44:40.298Z,17.84
2019-02-15T02:47:06.953Z,17.84
2019-02-15T02:49:33.599Z,17.89
2019-02-15T02:52:00.236Z,17.86
2019-02-15T02:54:26.880Z,17.91
2019-02-15T02:56:53.540Z,17.92
2019-02-15T02:59:20.190Z,17.92
2019-02-15T03:01:46.838Z,17.92
2019-02-15T03:04:13.500Z,17.94
2019-02-15T03:06:40.153Z,17.89
2019-02-15T03:09:06.795Z,17.95
2019-02-15T03:11:33.440Z,17.95
2019-02-15T03:14:10.738Z,17.96
2019-02-15T03:16:26.745Z,17.92
2019-02-15T03:18:53.383Z,17.98
2019-02-15T03:21:20.031Z,17.94
2019-02-15T03:23:46.709Z,17.99
2019-02-15T03:26:13.366Z,17.94
2019-02-15T03:28:40.019Z,18.04
2019-02-15T03:31:06.666Z,17.96
2019-02-15T03:33:33.306Z,18.00
2019-02-15T03:35:59.954Z,17.98
2019-02-15T03:38:26.593Z,18.04
2019-02-15T03:40:53.228Z,18.02
2019-02-15T03:43:19.885Z,18.04
2019-02-15T03:45:46.529Z,17.98
2019-02-15T03:48:13.186Z,18.01
2019-02-15T03:50:39.858Z,18.02
2019-02-15T03:53:06.505Z,18.04
2019-02-15T03:55:33.199Z,18.08
2019-02-15T03:57:59.843Z,18.06
2019-02-15T04:00:26.484Z,18.06
2019-02-15T04:02:53.138Z,18.07
2019-02-15T04:05:19.780Z,18.09
2019-02-15T04:07:46.422Z,18.08
2019-02-15T04:10:13.075Z,18.16
2019-02-15T04:12:39.718Z,18.80
2019-02-15T04:15:06.365Z,19.48
2019-02-15T04:17:33.004Z,19.77
2019-02-15T04:19:59.651Z,20.31
2019-02-15T04:22:26.289Z,20.49
2019-02-15T04:24:52.939Z,20.64
2019-02-15T04:27:19.586Z,20.66
2019-02-15T04:29:46.231Z,20.46
2019-02-15T04:32:12.867Z,20.19
2019-02-15T04:34:39.526Z,20.19
2019-02-15T04:37:06.166Z,20.27
2019-02-15T04:39:32.822Z,19.79
2019-02-15T04:41:59.458Z,19.44
2019-02-15T04:44:26.122Z,19.12
2019-02-15T04:46:52.758Z,19.15
2019-02-15T04:49:19.419Z,19.18
2019-02-15T04:51:46.062Z,19.14
2019-02-15T04:54:12.709Z,19.08
2019-02-15T04:56:39.378Z,19.05
2019-02-15T04:59:06.001Z,19.00
2019-02-15T05:01:32.648Z,18.91
2019-02-15T05:03:59.292Z,18.92
2019-02-15T05:06:25.936Z,18.94
2019-02-15T05:08:52.592Z,18.90
2019-02-15T05:11:19.243Z,18.73
2019-02-15T05:13:45.933Z,18.87
2019-02-15T05:16:12.672Z,18.74
2019-02-15T05:18:39.329Z,18.81
2019-02-15T05:21:05.972Z,19.00
2019-02-15T05:23:32.659Z,18.98
2019-02-15T05:25:59.344Z,19.14
2019-02-15T05:28:25.989Z,19.14
2019-02-15T05:30:52.636Z,19.07
2019-02-15T05:33:19.277Z,19.12
2019-02-15T05:35:45.925Z,19.15
2019-02-15T05:38:12.577Z,19.26
2019-02-15T05:40:39.258Z,19.51
2019-02-15T05:43:05.901Z,19.80
2019-02-15T05:45:32.549Z,19.88
2019-02-15T05:47:59.196Z,19.73
2019-02-15T05:50:25.844Z,19.58
2019-02-15T05:52:52.516Z,19.57
2019-02-15T05:55:19.232Z,19.50
2019-02-15T05:57:45.895Z,19.48
2019-02-15T06:00:12.584Z,19.46
2019-02-15T06:02:39.303Z,19.46
2019-02-15T06:05:05.997Z,19.42
2019-02-15T06:07:32.644Z,19.42
2019-02-15T06:09:59.306Z,19.48
2019-02-15T06:12:26.020Z,19.37
2019-02-15T06:14:52.690Z,19.39
2019-02-15T06:17:19.353Z,19.30
2019-02-15T06:19:46.007Z,19.41
2019-02-15T06:22:12.673Z,19.43
2019-02-15T06:24:39.419Z,19.42
2019-02-15T06:27:06.080Z,19.44
2019-02-15T06:29:32.857Z,19.44
2019-02-15T06:31:59.563Z,19.43
2019-02-15T06:34:26.328Z,19.45
2019-02-15T06:36:52.970Z,19.40
2019-02-15T06:39:19.658Z,19.35
2019-02-15T06:41:46.316Z,19.40
2019-02-15T06:44:12.980Z,19.48
2019-02-15T06:46:39.634Z,19.56
2019-02-15T06:49:06.360Z,19.57
2019-02-15T06:51:33.011Z,19.55
2019-02-15T06:53:59.696Z,19.59
2019-02-15T06:56:26.375Z,19.54
2019-02-15T06:58:53.082Z,19.56
2019-02-15T07:01:19.868Z,19.55
2019-02-15T07:03:46.540Z,19.29
2019-02-15T07:06:13.252Z,19.50
2019-02-15T07:08:39.888Z,19.65
2019-02-15T07:11:06.593Z,19.31
2019-02-15T07:13:33.271Z,19.61
2019-02-15T07:15:59.933Z,19.29
2019-02-15T07:18:26.625Z,19.34
2019-02-15T07:20:53.281Z,19.37
2019-02-15T07:23:19.994Z,19.42
2019-02-15T07:25:46.664Z,19.35
2019-02-15T07:28:13.331Z,19.39
2019-02-15T07:30:39.989Z,19.47
2019-02-15T07:33:06.650Z,19.27
2019-02-15T07:35:33.298Z,19.35
2019-02-15T07:37:59.992Z,19.35
2019-02-15T07:40:26.663Z,19.39
2019-02-15T07:42:53.342Z,19.27
2019-02-15T07:45:20.044Z,19.30
2019-02-15T07:47:46.754Z,19.45
2019-02-15T07:50:13.439Z,19.48
2019-02-15T07:52:40.115Z,19.31
2019-02-15T07:55:06.794Z,19.38
2019-02-15T07:57:34.015Z,19.30
2019-02-15T08:00:00.723Z,19.24
2019-02-15T08:02:26.914Z,19.11
2019-02-15T08:04:53.578Z,19.17
2019-02-15T08:07:20.241Z,19.21
2019-02-15T08:09:46.902Z,19.16
2019-02-15T08:12:13.948Z,19.13
2019-02-15T08:14:40.625Z,19.25
2019-02-15T08:17:07.282Z,19.30
2019-02-15T08:19:33.957Z,19.17
2019-02-15T08:22:00.623Z,19.20
2019-02-15T08:24:27.291Z,19.14
2019-02-15T08:26:53.948Z,19.17
2019-02-15T08:29:20.637Z,19.16
2019-02-15T08:31:47.286Z,19.04
2019-02-15T08:34:13.971Z,19.18
2019-02-15T08:36:40.698Z,19.28
2019-02-15T08:39:07.355Z,19.00
2019-02-15T08:41:34.013Z,19.01
2019-02-15T08:44:00.724Z,19.04
2019-02-15T08:46:27.373Z,19.04
2019-02-15T08:48:54.054Z,19.23
2019-02-15T08:51:20.715Z,18.95
2019-02-15T08:53:47.386Z,18.96
2019-02-15T08:56:14.095Z,18.99
2019-02-15T08:58:40.787Z,18.96
2019-02-15T09:01:07.518Z,19.03
2019-02-15T09:03:34.169Z,19.07
2019-02-15T09:06:00.908Z,19.06
2019-02-15T09:08:27.563Z,18.96
2019-02-15T09:10:54.840Z,18.96
2019-02-15T09:13:21.537Z,19.12
2019-02-15T09:15:48.205Z,19.08
2019-02-15T09:18:14.882Z,19.08
2019-02-15T09:20:41.647Z,18.83
2019-02-15T09:23:08.321Z,18.97
2019-02-15T09:25:35.020Z,19.07
2019-02-15T09:28:01.684Z,19.13
2019-02-15T09:30:28.392Z,19.33
2019-02-15T09:32:55.059Z,19.20
2019-02-15T09:35:21.774Z,19.18
2019-02-15T09:37:48.460Z,19.22
2019-02-15T09:40:15.154Z,19.21
2019-02-15T09:42:41.813Z,19.17
2019-02-15T09:45:08.479Z,18.89
2019-02-15T09:47:35.196Z,18.89
2019-02-15T09:50:01.872Z,18.88
2019-02-15T09:52:28.647Z,18.86
2019-02-15T09:54:55.330Z,18.76
2019-02-15T09:57:21.994Z,18.70
2019-02-15T09:59:48.874Z,18.47
2019-02-15T10:02:15.538Z,18.53
2019-02-15T10:04:42.233Z,18.70
2019-02-15T10:07:08.903Z,18.66
2019-02-15T10:09:35.651Z,18.69
2019-02-15T10:12:02.315Z,18.63
2019-02-15T10:14:28.975Z,18.46
2019-02-15T10:16:55.651Z,18.55
2019-02-15T10:19:22.743Z,18.71
2019-02-15T10:21:48.982Z,18.46
2019-02-15T10:24:15.639Z,18.42
2019-02-15T10:26:42.315Z,18.62
2019-02-15T10:29:08.978Z,18.79
2019-02-15T10:31:35.637Z,18.73
2019-02-15T10:34:02.338Z,18.76
2019-02-15T10:36:28.993Z,18.71
2019-02-15T10:38:55.783Z,18.60
2019-02-15T10:41:22.524Z,18.64
2019-02-15T10:43:49.232Z,18.56
2019-02-15T10:46:15.874Z,18.64
2019-02-15T10:48:42.546Z,18.55
2019-02-15T10:51:09.206Z,18.44
2019-02-15T10:53:35.880Z,18.44
2019-02-15T10:56:02.587Z,18.47
2019-02-15T10:58:29.303Z,18.49
2019-02-15T11:00:55.972Z,18.42
2019-02-15T11:03:22.781Z,18.43
2019-02-15T11:05:49.477Z,18.37
2019-02-15T11:08:16.219Z,18.35
2019-02-15T11:10:42.863Z,18.36
2019-02-15T11:13:09.525Z,18.37
2019-02-15T11:15:36.205Z,18.31
2019-02-15T11:18:02.880Z,18.34
2019-02-15T11:20:29.590Z,18.39
2019-02-15T11:22:56.300Z,18.37
2019-02-15T11:25:22.964Z,18.35
2019-02-15T11:27:49.646Z,18.51
2019-02-15T11:30:16.311Z,18.47
2019-02-15T11:32:42.975Z,18.62
2019-02-15T11:35:09.658Z,18.61
2019-02-15T11:37:36.333Z,18.67
2019-02-15T11:40:02.995Z,18.62
2019-02-15T11:42:29.719Z,18.71
2019-02-15T11:44:56.393Z,18.77
2019-02-15T11:47:23.105Z,18.71
2019-02-15T11:49:49.776Z,18.69
2019-02-15T11:52:16.445Z,18.74
2019-02-15T11:54:43.114Z,18.80
2019-02-15T11:57:09.787Z,18.85
2019-02-15T11:59:37.815Z,18.88
2019-02-15T12:02:06.077Z,18.92
2019-02-15T12:04:29.863Z,18.89
2019-02-15T12:06:56.582Z,18.85
2019-02-15T12:09:23.245Z,18.84
2019-02-15T12:11:49.957Z,18.85
2019-02-15T12:14:16.626Z,18.76
2019-02-15T12:16:43.347Z,18.94
2019-02-15T12:19:10.072Z,18.96
2019-02-15T12:21:36.751Z,18.90
2019-02-15T12:24:03.427Z,19.03
2019-02-15T12:26:30.081Z,19.06
2019-02-15T12:28:56.799Z,18.99
2019-02-15T12:31:23.464Z,19.05
2019-02-15T12:33:50.133Z,19.11
2019-02-15T12:36:16.908Z,19.44
2019-02-15T12:38:43.694Z,19.25
2019-02-15T12:41:10.534Z,19.08
2019-02-15T12:43:37.264Z,19.03
2019-02-15T12:46:03.924Z,18.95
2019-02-15T12:48:32.949Z,19.00
2019-02-15T12:50:59.705Z,19.25
2019-02-15T12:53:26.594Z,19.38
2019-02-15T12:55:53.260Z,19.26
2019-02-15T12:58:19.931Z,19.24
2019-02-15T13:00:46.665Z,19.23
2019-02-15T13:03:13.407Z,19.11
2019-02-15T13:05:40.085Z,19.29
2019-02-15T13:08:06.751Z,19.30
2019-02-15T13:10:33.460Z,19.31
2019-02-15T13:13:00.156Z,19.22
2019-02-15T13:15:26.830Z,19.07
2019-02-15T13:17:53.562Z,19.10
2019-02-15T13:20:20.215Z,19.23
2019-02-15T13:22:46.910Z,19.25
2019-02-15T13:25:13.611Z,19.31
2019-02-15T13:27:40.263Z,19.29
2019-02-15T13:30:06.943Z,19.26
2019-02-15T13:32:33.651Z,19.34
2019-02-15T13:35:00.317Z,19.45
2019-02-15T13:37:27.015Z,19.47
2019-02-15T13:39:53.836Z,19.72
2019-02-15T13:42:20.499Z,20.04
2019-02-15T13:44:47.168Z,20.19
2019-02-15T13:47:13.907Z,20.33
2019-02-15T13:49:40.629Z,20.24
2019-02-15T13:52:07.298Z,20.03
2019-02-15T13:54:33.979Z,20.02
2019-02-15T13:57:00.814Z,19.93
2019-02-15T13:59:27.535Z,19.82
2019-02-15T14:01:54.294Z,19.68
2019-02-15T14:04:21.029Z,19.72
2019-02-15T14:06:47.716Z,19.76
2019-02-15T14:09:14.509Z,19.65
2019-02-15T14:11:41.261Z,19.74
2019-02-15T14:14:07.917Z,19.87
2019-02-15T14:16:34.586Z,19.81
2019-02-15T14:19:01.259Z,19.72
2019-02-15T14:21:27.988Z,19.83
2019-02-15T14:23:54.680Z,19.94
2019-02-15T14:26:21.546Z,19.88
2019-02-15T14:28:48.227Z,19.97
2019-02-15T14:31:14.871Z,19.88
2019-02-15T14:33:41.659Z,20.28
2019-02-15T14:36:08.668Z,20.07
2019-02-15T14:38:35.393Z,19.96
2019-02-15T14:41:02.033Z,20.02
2019-02-15T14:43:28.751Z,20.01
2019-02-15T14:45:55.425Z,20.06
2019-02-15T14:48:22.163Z,20.08
2019-02-15T14:50:49.244Z,20.09
2019-02-15T14:53:15.917Z,20.14
2019-02-15T14:55:42.583Z,20.19
2019-02-15T14:58:09.349Z,20.25
2019-02-15T15:00:36.008Z,20.29
2019-02-15T15:03:02.800Z,20.31
2019-02-15T15:05:29.536Z,20.39
2019-02-15T15:07:56.217Z,20.30
2019-02-15T15:10:23.578Z,20.52
2019-02-15T15:12:50.277Z,20.37
2019-02-15T15:15:16.965Z,20.42
2019-02-15T15:17:43.660Z,20.33
2019-02-15T15:20:10.329Z,20.33
2019-02-15T15:22:37.035Z,20.34
2019-02-15T15:25:03.786Z,20.38
2019-02-15T15:27:30.456Z,20.28
2019-02-15T15:29:57.124Z,20.29
2019-02-15T15:32:23.794Z,20.21
2019-02-15T15:34:50.450Z,20.16
2019-02-15T15:37:17.137Z,20.08
2019-02-15T15:39:43.797Z,20.08
2019-02-15T15:42:10.458Z,19.98
2019-02-15T15:44:37.168Z,19.94
2019-02-15T15:47:03.835Z,19.97
2019-02-15T15:49:30.494Z,19.95
2019-02-15T15:51:57.148Z,19.99
2019-02-15T15:54:23.852Z,19.88
2019-02-15T15:56:52.976Z,19.91
2019-02-15T15:59:19.649Z,20.00
2019-02-15T16:01:46.312Z,19.82
2019-02-15T16:04:12.977Z,19.76
2019-02-15T16:06:39.701Z,19.85
2019-02-15T16:09:06.359Z,19.80
2019-02-15T16:11:33.031Z,19.72
2019-02-15T16:13:59.693Z,19.62
2019-02-15T16:16:26.409Z,19.36
2019-02-15T16:18:53.139Z,19.54
2019-02-15T16:21:21.928Z,19.50
2019-02-15T16:23:46.483Z,19.50
2019-02-15T16:26:13.130Z,19.44
2019-02-15T16:28:39.833Z,19.39
2019-02-15T16:31:06.547Z,19.37
2019-02-15T16:33:33.263Z,19.26
2019-02-15T16:35:59.918Z,19.26
2019-02-15T16:38:26.590Z,19.17
2019-02-15T16:40:53.292Z,19.13
2019-02-15T16:43:20.002Z,19.06
2019-02-15T16:45:46.666Z,19.03
2019-02-15T16:48:13.326Z,19.06
2019-02-15T16:50:40.029Z,19.01
2019-02-15T16:53:06.653Z,19.01
2019-02-15T16:55:33.327Z,19.02
2019-02-15T16:57:59.982Z,18.97
2019-02-15T17:00:26.648Z,18.95
2019-02-15T17:02:53.307Z,18.77
2019-02-15T17:05:21.252Z,18.69
2019-02-15T17:07:46.661Z,18.80
2019-02-15T17:10:13.326Z,18.87
2019-02-15T17:12:39.980Z,18.78
2019-02-15T17:15:06.691Z,18.87
2019-02-15T17:17:33.420Z,18.84
2019-02-15T17:20:00.093Z,18.81
2019-02-15T17:22:26.750Z,18.83
2019-02-15T17:24:53.455Z,18.82
2019-02-15T17:27:20.123Z,18.84
2019-02-15T17:29:46.764Z,18.77
2019-02-15T17:32:13.426Z,18.66
2019-02-15T17:34:40.084Z,18.64
2019-02-15T17:37:06.745Z,18.66
2019-02-15T17:39:33.451Z,18.75
2019-02-15T17:42:00.113Z,18.73
2019-02-15T17:44:26.887Z,18.77
2019-02-15T17:46:53.550Z,18.71
2019-02-15T17:49:20.202Z,18.71
2019-02-15T17:51:46.907Z,18.67
2019-02-15T17:54:13.638Z,18.66
2019-02-15T17:56:40.298Z,18.66
2019-02-15T17:59:06.955Z,18.63
2019-02-15T18:01:33.604Z,18.57
2019-02-15T18:04:00.265Z,18.53
2019-02-15T18:06:26.918Z,18.59
2019-02-15T18:08:53.570Z,18.51
2019-02-15T18:11:20.288Z,18.52
2019-02-15T18:13:46.990Z,18.44
2019-02-15T18:16:13.652Z,18.46
2019-02-15T18:18:40.312Z,18.36
2019-02-15T18:21:07.015Z,18.43
2019-02-15T18:23:33.685Z,18.35
2019-02-15T18:26:00.371Z,18.35
2019-02-15T18:28:27.056Z,18.29
2019-02-15T18:30:53.751Z,18.31
2019-02-15T18:33:20.489Z,18.27
2019-02-15T18:35:47.138Z,18.27
2019-02-15T18:38:13.806Z,18.22
2019-02-15T18:40:40.475Z,18.25
2019-02-15T18:43:07.182Z,18.18
2019-02-15T18:45:33.836Z,18.23
2019-02-15T18:48:00.539Z,18.15
2019-02-15T18:50:27.330Z,18.16
2019-02-15T18:52:53.991Z,18.08
2019-02-15T18:55:20.656Z,18.09
2019-02-15T18:57:47.330Z,18.06
2019-02-15T19:00:14.086Z,18.09
2019-02-15T19:02:40.697Z,18.02
2019-02-15T19:05:07.358Z,18.03
2019-02-15T19:07:34.066Z,18.01
2019-02-15T19:10:00.735Z,17.99
2019-02-15T19:12:27.474Z,17.92
2019-02-15T19:14:54.118Z,17.93
2019-02-15T19:17:20.786Z,17.92
2019-02-15T19:19:47.490Z,17.91
2019-02-15T19:22:14.156Z,17.83
2019-02-15T19:24:40.847Z,17.88
2019-02-15T19:27:07.563Z,17.79
2019-02-15T19:29:34.227Z,17.82
2019-02-15T19:32:00.893Z,17.79
2019-02-15T19:34:27.627Z,17.80
2019-02-15T19:36:55.659Z,17.81
2019-02-15T19:39:20.956Z,17.79
2019-02-15T19:41:47.615Z,17.79
2019-02-15T19:44:14.261Z,17.79
2019-02-15T19:46:40.912Z,17.75
2019-02-15T19:49:07.572Z,17.78
2019-02-15T19:51:37.645Z,17.77
2019-02-15T19:54:04.314Z,17.76
2019-02-15T19:56:30.971Z,17.75
2019-02-15T19:58:57.672Z,17.75
2019-02-15T20:01:24.327Z,17.71
2019-02-15T20:03:50.998Z,17.75
2019-02-15T20:06:17.734Z,17.76
2019-02-15T20:08:44.398Z,17.65
2019-02-15T20:11:11.096Z,17.65
2019-02-15T20:13:37.814Z,17.63
2019-02-15T20:16:04.482Z,17.63
2019-02-15T20:18:31.130Z,17.62
2019-02-15T20:20:57.846Z,17.61
2019-02-15T20:23:24.498Z,17.59
2019-02-15T20:25:51.163Z,17.63
2019-02-15T20:28:17.821Z,17.56
2019-02-15T20:30:44.532Z,17.58
2019-02-15T20:33:11.268Z,17.49
2019-02-15T20:35:37.917Z,17.51
2019-02-15T20:38:04.579Z,17.50
2019-02-15T20:40:31.345Z,17.52
2019-02-15T20:42:58.077Z,17.46
2019-02-15T20:45:27.872Z,17.45
2019-02-15T20:47:54.533Z,17.40
2019-02-15T20:50:21.197Z,17.45
2019-02-15T20:52:47.858Z,17.42
2019-02-15T20:55:14.519Z,17.39
2019-02-15T20:57:41.178Z,17.30
2019-02-15T21:00:07.838Z,17.34
2019-02-15T21:02:34.772Z,17.20
2019-02-15T21:05:01.247Z,17.24
2019-02-15T21:07:27.921Z,17.20
2019-02-15T21:09:54.565Z,17.19
2019-02-15T21:12:21.239Z,17.11
2019-02-15T21:14:48.080Z,17.18
2019-02-15T21:17:14.574Z,17.08
2019-02-15T21:19:41.283Z,17.08
2019-02-15T21:22:07.970Z,17.03
2019-02-15T21:24:34.618Z,17.00
2019-02-15T21:27:01.287Z,16.99
2019-02-15T21:29:27.948Z,17.02
2019-02-15T21:31:54.611Z,16.99
2019-02-15T21:34:21.264Z,17.01
2019-02-15T21:36:47.939Z,16.99
2019-02-15T21:39:14.615Z,16.99
2019-02-15T21:41:41.302Z,16.98
2019-02-15T21:44:07.956Z,17.02
2019-02-15T21:46:34.662Z,17.03
2019-02-15T21:49:01.346Z,17.22
2019-02-15T21:51:28.055Z,17.31
2019-02-15T21:53:54.705Z,17.29
2019-02-15T21:56:21.349Z,17.17
2019-02-15T21:58:48.069Z,17.11
2019-02-15T22:01:14.760Z,17.03
2019-02-15T22:03:41.481Z,16.93
2019-02-15T22:06:08.154Z,16.92
2019-02-15T22:08:34.888Z,16.83
2019-02-15T22:11:01.626Z,16.82
2019-02-15T22:13:28.384Z,16.78
2019-02-15T22:15:55.099Z,16.78
2019-02-15T22:18:21.761Z,16.77
2019-02-15T22:20:48.411Z,16.72
2019-02-15T22:23:15.074Z,16.67
2019-02-15T22:25:41.719Z,16.72
2019-02-15T22:28:08.384Z,16.70
2019-02-15T22:30:35.032Z,16.68
2019-02-15T22:33:01.699Z,16.67
2019-02-15T22:35:28.359Z,16.69
2019-02-15T22:37:55.070Z,16.65
2019-02-15T22:40:21.734Z,16.63
2019-02-15T22:42:48.399Z,16.61
2019-02-15T22:45:15.052Z,16.62
2019-02-15T22:47:41.706Z,16.63
2019-02-15T22:50:08.378Z,16.59
2019-02-15T22:52:35.114Z,16.55
2019-02-15T22:55:01.756Z,16.61
2019-02-15T22:57:28.415Z,16.57
2019-02-15T22:59:55.081Z,16.56
2019-02-15T23:02:21.747Z,16.58
2019-02-15T23:04:48.407Z,16.62
2019-02-15T23:07:15.079Z,16.54
2019-02-15T23:09:41.830Z,16.49
2019-02-15T23:12:08.499Z,16.52
2019-02-15T23:14:35.160Z,16.53
2019-02-15T23:17:01.807Z,16.55
2019-02-15T23:19:28.468Z,16.48
2019-02-15T23:21:55.163Z,16.51
2019-02-15T23:24:21.886Z,16.49
2019-02-15T23:26:48.539Z,16.51
2019-02-15T23:29:15.196Z,16.47
2019-02-15T23:31:41.862Z,16.48
2019-02-15T23:34:08.524Z,16.50
2019-02-15T23:36:35.219Z,16.46
2019-02-15T23:39:01.891Z,16.46
2019-02-15T23:41:28.546Z,16.49
2019-02-15T23:43:55.202Z,16.50
2019-02-15T23:46:21.916Z,16.46
2019-02-15T23:48:48.577Z,16.47
2019-02-15T23:51:15.215Z,16.48
2019-02-15T23:53:41.878Z,16.43
2019-02-15T23:56:08.523Z,16.42
2019-02-15T23:58:35.234Z,16.49
